Time;durP1;ratioP1;P1;durP2;ratioP2;P2;SDS_P1;SDS_P2;PMS_P1;PMS_P2;Temp;Humidity;BMP_temperature;BMP_pressure;BME280_temperature;BME280_humidity;BME280_pressure;Samples;Min_cycle;Max_cycle;Signal;HPM_P1;HPM_P2
2022/04/12 00:04:40;;;;;;;4.43;1.08;;;6.50;98.40;;;;;;10319771;28;20054;-88
2022/04/12 00:09:42;;;;;;;1.83;0.80;;;6.40;98.70;;;;;;10324657;28;20030;-87
2022/04/12 00:14:43;;;;;;;7.93;0.80;;;6.40;98.90;;;;;;10332770;28;20362;-87
2022/04/12 00:19:46;;;;;;;3.78;0.70;;;6.40;99.10;;;;;;10334305;28;20050;-88
2022/04/12 00:24:48;;;;;;;1.77;1.00;;;6.40;99.60;;;;;;10321601;28;20053;-88
2022/04/12 00:29:50;;;;;;;1.90;1.05;;;6.30;99.90;;;;;;10315400;28;20080;-87
2022/04/12 00:34:52;;;;;;;4.38;0.80;;;6.30;99.90;;;;;;10311550;28;20120;-88
2022/04/12 00:39:54;;;;;;;1.50;0.63;;;6.20;99.90;;;;;;10332538;28;20051;-88
2022/04/12 00:44:56;;;;;;;3.30;0.80;;;6.10;99.90;;;;;;10330863;28;20038;-87
2022/04/12 00:49:58;;;;;;;1.58;0.75;;;6.10;99.90;;;;;;10336098;28;20052;-87
2022/04/12 00:55:02;;;;;;;1.35;0.70;;;6.10;99.90;;;;;;10325893;28;20049;-87
2022/04/12 01:00:07;;;;;;;2.65;0.70;;;6.10;99.90;;;;;;10342378;28;20555;-87
2022/04/12 01:05:09;;;;;;;3.45;0.73;;;6.10;99.90;;;;;;10327119;28;20133;-88
2022/04/12 01:10:11;;;;;;;5.93;1.20;;;6.10;99.90;;;;;;10330836;28;20457;-87
2022/04/12 01:15:24;;;;;;;3.80;1.00;;;6.10;99.90;;;;;;10322059;28;20073;-87
2022/04/12 01:20:29;;;;;;;3.53;1.10;;;6.10;99.80;;;;;;10324879;28;20046;-87
2022/04/12 01:25:32;;;;;;;5.95;0.70;;;6.10;99.90;;;;;;10324994;28;20049;-88
2022/04/12 01:30:35;;;;;;;3.25;0.80;;;6.00;99.90;;;;;;10307340;28;20057;-88
2022/04/12 01:35:37;;;;;;;1.02;0.60;;;6.00;99.90;;;;;;10327931;28;20577;-87
2022/04/12 01:40:39;;;;;;;1.70;0.75;;;6.00;99.90;;;;;;10331213;28;20391;-87
2022/04/12 01:45:40;;;;;;;4.40;0.80;;;6.00;99.90;;;;;;10322870;28;20046;-87
2022/04/12 01:50:42;;;;;;;5.82;0.77;;;6.00;99.90;;;;;;10321804;28;20036;-88
2022/04/12 01:55:44;;;;;;;2.05;0.65;;;6.00;99.90;;;;;;10322047;28;20489;-87
2022/04/12 02:00:46;;;;;;;2.63;0.90;;;6.00;99.90;;;;;;10310163;28;20057;-87
2022/04/12 02:05:48;;;;;;;5.03;0.90;;;6.00;99.90;;;;;;10326390;28;20970;-87
2022/04/12 02:10:49;;;;;;;2.60;0.90;;;6.00;99.90;;;;;;10347862;28;20080;-88
2022/04/12 02:15:51;;;;;;;2.50;0.80;;;5.90;99.90;;;;;;10344069;28;20558;-87
2022/04/12 02:20:53;;;;;;;1.02;0.70;;;5.90;99.90;;;;;;10340743;28;20054;-87
2022/04/12 02:25:55;;;;;;;3.47;0.90;;;5.80;99.90;;;;;;10329071;28;20046;-88
2022/04/12 02:30:57;;;;;;;4.00;1.38;;;5.80;99.90;;;;;;10342162;28;20378;-87
2022/04/12 02:35:59;;;;;;;6.60;0.80;;;5.80;99.90;;;;;;10334069;28;20122;-88
2022/04/12 02:41:01;;;;;;;5.18;0.80;;;5.70;99.90;;;;;;10342814;28;20033;-88
2022/04/12 02:46:02;;;;;;;2.20;0.90;;;5.60;99.90;;;;;;10358388;28;20068;-88
2022/04/12 02:51:04;;;;;;;2.35;1.00;;;5.60;99.90;;;;;;10332238;28;20050;-88
2022/04/12 02:56:07;;;;;;;1.73;0.73;;;5.60;99.90;;;;;;10340449;28;20054;-88
2022/04/12 03:01:09;;;;;;;3.00;1.67;;;5.50;99.90;;;;;;10247031;28;20070;-86
2022/04/12 03:06:13;;;;;;;4.68;1.98;;;5.60;99.90;;;;;;9899003;28;20122;-86
2022/04/12 03:11:15;;;;;;;2.05;1.73;;;5.60;99.90;;;;;;9895269;28;26247;-87
2022/04/12 03:16:17;;;;;;;3.42;1.60;;;5.60;99.90;;;;;;9907246;28;20837;-87
2022/04/12 03:21:20;;;;;;;1.92;1.55;;;5.60;99.90;;;;;;9906123;28;20057;-87
2022/04/12 03:26:22;;;;;;;2.28;1.48;;;5.60;99.90;;;;;;9887374;28;20054;-87
2022/04/12 03:31:24;;;;;;;6.05;1.58;;;5.60;99.90;;;;;;9892356;28;20336;-87
2022/04/12 03:36:26;;;;;;;4.75;1.95;;;5.60;99.90;;;;;;9811838;28;20046;-86
2022/04/12 03:41:28;;;;;;;3.22;1.63;;;5.60;99.90;;;;;;9787322;28;20129;-87
2022/04/12 03:46:30;;;;;;;2.92;1.65;;;5.60;99.90;;;;;;9791306;28;20100;-87
2022/04/12 03:51:32;;;;;;;1.75;1.30;;;5.50;99.90;;;;;;10083649;28;20049;-87
2022/04/12 03:56:34;;;;;;;1.65;0.70;;;5.50;99.90;;;;;;10324086;28;20026;-87
2022/04/12 04:01:37;;;;;;;6.75;1.33;;;5.40;99.90;;;;;;10317311;28;20053;-87
2022/04/12 04:06:39;;;;;;;2.83;1.08;;;5.40;99.90;;;;;;10332415;28;20050;-87
2022/04/12 04:11:40;;;;;;;2.88;1.00;;;5.40;99.90;;;;;;10323061;28;20060;-86
2022/04/12 04:16:42;;;;;;;2.60;1.48;;;5.40;99.90;;;;;;10330948;28;20043;-87
2022/04/12 04:21:44;;;;;;;3.65;0.98;;;5.40;99.90;;;;;;10311900;28;20038;-87
2022/04/12 04:26:48;;;;;;;3.83;1.10;;;5.40;99.90;;;;;;10310753;28;20393;-86
2022/04/12 04:31:51;;;;;;;3.78;1.15;;;5.30;99.90;;;;;;10319209;28;20053;-87
2022/04/12 04:36:53;;;;;;;2.20;1.02;;;5.40;99.90;;;;;;10348711;28;20152;-87
2022/04/12 04:41:55;;;;;;;6.70;1.13;;;5.40;99.90;;;;;;10326480;28;20060;-87
2022/04/12 04:46:57;;;;;;;5.05;1.30;;;5.40;99.90;;;;;;10322013;28;20058;-87
2022/04/12 04:51:58;;;;;;;5.30;1.85;;;5.40;99.90;;;;;;10331394;28;20061;-87
2022/04/12 04:57:00;;;;;;;4.40;1.90;;;5.50;99.90;;;;;;10308527;28;20543;-88
2022/04/12 05:02:02;;;;;;;2.10;0.88;;;5.50;99.90;;;;;;10324887;28;20061;-88
2022/04/12 05:07:04;;;;;;;2.97;1.25;;;5.50;99.90;;;;;;10343229;28;20050;-88
2022/04/12 05:12:07;;;;;;;4.60;1.42;;;5.50;99.90;;;;;;10330554;28;20126;-88
2022/04/12 05:17:09;;;;;;;3.70;1.67;;;5.60;99.90;;;;;;10327353;28;20046;-88
2022/04/12 05:22:10;;;;;;;4.63;1.73;;;5.60;99.90;;;;;;10326206;28;20038;-88
2022/04/12 05:27:12;;;;;;;5.82;1.60;;;5.70;99.90;;;;;;10341559;28;20056;-88
2022/04/12 05:32:14;;;;;;;11.48;2.25;;;5.70;99.90;;;;;;10326463;28;20053;-88
2022/04/12 05:37:16;;;;;;;5.82;1.70;;;5.70;99.90;;;;;;10339211;28;20050;-88
2022/04/12 05:42:18;;;;;;;5.93;1.88;;;5.70;99.90;;;;;;10334531;28;20088;-88
2022/04/12 05:47:20;;;;;;;6.07;1.60;;;5.80;99.90;;;;;;10327834;28;20714;-88
2022/04/12 05:52:22;;;;;;;13.85;2.75;;;5.80;99.90;;;;;;10350227;28;20034;-88
2022/04/12 05:57:23;;;;;;;6.35;1.58;;;5.90;99.90;;;;;;10345193;28;20480;-88
2022/04/12 06:02:25;;;;;;;5.43;1.83;;;6.00;99.90;;;;;;10333989;28;20042;-88
2022/04/12 06:07:31;;;;;;;4.43;2.08;;;6.20;99.90;;;;;;10330472;28;20037;-88
2022/04/12 06:12:33;;;;;;;7.35;1.95;;;6.30;99.90;;;;;;10306629;28;20108;-88
2022/04/12 06:17:36;;;;;;;5.70;1.65;;;6.60;99.90;;;;;;10338091;28;20073;-89
2022/04/12 06:22:39;;;;;;;3.65;1.67;;;6.80;99.90;;;;;;10324076;28;20042;-88
2022/04/12 06:27:43;;;;;;;5.80;2.30;;;6.90;99.90;;;;;;10312604;28;20592;-88
2022/04/12 06:32:46;;;;;;;5.15;1.70;;;7.20;99.90;;;;;;10336491;28;20042;-89
2022/04/12 06:37:50;;;;;;;8.55;2.28;;;7.50;99.90;;;;;;10343114;28;20037;-88
2022/04/12 06:42:52;;;;;;;4.90;1.75;;;7.80;99.90;;;;;;10317155;28;20054;-88
2022/04/12 06:47:58;;;;;;;3.80;1.60;;;8.10;96.50;;;;;;10317000;28;20568;-88
2022/04/12 06:53:00;;;;;;;5.53;1.95;;;8.50;92.10;;;;;;10285086;28;20065;-88
2022/04/12 06:58:02;;;;;;;3.33;1.50;;;8.80;84.90;;;;;;10326477;28;20060;-88
2022/04/12 07:03:04;;;;;;;5.35;2.65;;;9.00;83.50;;;;;;10327880;28;20109;-88
2022/04/12 07:08:06;;;;;;;4.43;1.85;;;9.10;83.00;;;;;;10321969;28;20083;-88
2022/04/12 07:13:08;;;;;;;2.88;1.33;;;9.30;83.20;;;;;;10309506;28;20504;-88
2022/04/12 07:18:10;;;;;;;3.15;1.88;;;9.50;81.80;;;;;;10327416;28;20054;-88
2022/04/12 07:23:12;;;;;;;4.95;2.33;;;9.70;80.50;;;;;;10311196;28;20043;-88
2022/04/12 07:28:14;;;;;;;7.07;2.28;;;9.90;79.10;;;;;;10328491;28;20065;-87
2022/04/12 07:33:16;;;;;;;4.35;2.13;;;10.20;77.40;;;;;;10312158;28;20056;-87
2022/04/12 07:38:18;;;;;;;7.05;1.77;;;10.40;76.30;;;;;;10327652;28;20039;-87
2022/04/12 07:43:20;;;;;;;10.95;2.22;;;10.60;74.00;;;;;;10307990;28;20046;-87
2022/04/12 07:48:22;;;;;;;4.30;2.00;;;10.70;74.60;;;;;;10333531;28;20057;-87
2022/04/12 07:53:24;;;;;;;6.57;2.50;;;11.00;73.60;;;;;;10327479;28;20582;-87
2022/04/12 07:58:26;;;;;;;5.75;2.00;;;11.10;73.90;;;;;;10310506;28;20112;-87
2022/04/12 08:03:32;;;;;;;9.50;1.80;;;11.40;73.90;;;;;;10321573;28;20508;-87
2022/04/12 08:08:34;;;;;;;4.22;1.90;;;11.60;71.70;;;;;;10332035;28;20385;-87
2022/04/12 08:13:36;;;;;;;6.68;2.20;;;11.80;69.70;;;;;;10340155;28;20049;-87
2022/04/12 08:18:38;;;;;;;5.57;2.22;;;12.00;69.10;;;;;;10315246;28;20050;-87
2022/04/12 08:23:40;;;;;;;5.78;2.22;;;12.30;69.00;;;;;;10321324;28;20110;-87
2022/04/12 08:28:42;;;;;;;5.75;2.08;;;12.40;68.40;;;;;;10305843;28;20103;-87
2022/04/12 08:33:44;;;;;;;6.15;2.28;;;12.70;66.40;;;;;;10293991;28;20046;-87
2022/04/12 08:38:46;;;;;;;7.72;2.08;;;13.00;65.40;;;;;;10335863;28;20062;-87
2022/04/12 08:43:56;;;;;;;4.40;1.60;;;13.20;65.30;;;;;;10305275;28;20046;-87
2022/04/12 08:48:58;;;;;;;4.68;2.15;;;13.30;63.40;;;;;;10324246;28;20141;-87
2022/04/12 08:54:01;;;;;;;6.53;1.92;;;13.60;64.60;;;;;;10319255;28;20054;-87
2022/04/12 08:59:04;;;;;;;6.05;2.50;;;13.80;63.50;;;;;;10338485;28;20113;-87
2022/04/12 09:04:13;;;;;;;4.80;1.92;;;13.80;63.10;;;;;;10324909;28;20093;-88
2022/04/12 09:09:28;;;;;;;4.60;1.98;;;13.90;64.20;;;;;;10332121;28;20065;-88
2022/04/12 09:14:58;;;;;;;5.28;2.30;;;14.20;62.70;;;;;;10317555;28;20411;-88
2022/04/12 09:20:01;;;;;;;7.13;1.98;;;14.40;61.40;;;;;;10314973;28;20042;-87
2022/04/12 09:25:05;;;;;;;4.43;1.73;;;14.40;62.10;;;;;;10341425;28;20354;-88
2022/04/12 09:30:09;;;;;;;5.63;2.17;;;14.70;61.90;;;;;;10343637;28;20054;-88
2022/04/12 09:35:12;;;;;;;3.90;1.52;;;14.70;60.20;;;;;;10316494;28;20112;-87
2022/04/12 09:40:17;;;;;;;8.32;1.55;;;15.00;60.90;;;;;;10314647;28;20129;-88
2022/04/12 09:45:20;;;;;;;9.52;1.60;;;15.30;59.90;;;;;;10326922;28;20081;-88
2022/04/12 09:50:27;;;;;;;6.05;1.67;;;15.50;59.30;;;;;;10318819;28;20051;-88
2022/04/12 09:55:34;;;;;;;4.13;1.53;;;15.80;58.70;;;;;;10326108;28;20053;-88
2022/04/12 10:00:47;;;;;;;6.72;1.80;;;16.10;58.70;;;;;;10323396;28;20081;-88
2022/04/12 10:05:50;;;;;;;8.53;2.03;;;16.20;57.50;;;;;;10327295;28;20042;-88
2022/04/12 10:10:53;;;;;;;5.00;1.75;;;16.60;57.40;;;;;;10310213;28;20663;-88
2022/04/12 10:15:56;;;;;;;4.10;1.10;;;16.90;56.00;;;;;;10315887;28;20407;-88
2022/04/12 10:20:58;;;;;;;3.83;1.45;;;17.00;54.80;;;;;;10319610;28;20046;-88
2022/04/12 10:26:01;;;;;;;5.03;1.00;;;17.10;53.90;;;;;;10327625;28;20066;-88
2022/04/12 10:31:25;;;;;;;3.28;1.30;;;17.30;53.10;;;;;;10309009;28;20046;-88
2022/04/12 10:37:09;;;;;;;4.50;1.17;;;17.60;52.60;;;;;;10317181;28;20055;-87
2022/04/12 10:42:33;;;;;;;4.97;1.42;;;18.00;52.60;;;;;;10320202;28;20042;-88
2022/04/12 10:47:40;;;;;;;4.53;1.20;;;18.30;51.10;;;;;;10331423;28;20050;-88
2022/04/12 10:52:42;;;;;;;4.78;1.30;;;18.50;52.70;;;;;;10318681;28;20532;-88
2022/04/12 10:57:44;;;;;;;2.58;0.73;;;18.80;49.80;;;;;;10330071;28;20109;-88
2022/04/12 11:02:52;;;;;;;3.53;1.02;;;19.10;50.40;;;;;;10296101;28;20054;-88
2022/04/12 11:07:54;;;;;;;2.17;0.50;;;19.40;50.50;;;;;;10331059;28;20137;-88
2022/04/12 11:13:12;;;;;;;1.42;0.43;;;19.80;47.20;;;;;;10319407;28;20046;-87
2022/04/12 11:18:16;;;;;;;2.25;0.40;;;20.10;46.10;;;;;;10328188;28;20092;-88
2022/04/12 11:23:18;;;;;;;3.15;0.60;;;20.50;45.80;;;;;;10311897;28;20062;-88
2022/04/12 11:28:24;;;;;;;1.02;0.50;;;20.90;45.70;;;;;;10308719;28;20132;-88
2022/04/12 11:33:27;;;;;;;;;;;21.00;57.00;;;;;;10284739;28;20433;-88
2022/04/12 11:38:29;;;;;;;0.80;0.30;;;21.30;70.30;;;;;;10294778;28;19920;-88
2022/04/12 11:43:31;;;;;;;2.30;0.38;;;21.50;44.20;;;;;;10252744;28;20115;-89
2022/04/12 11:48:33;;;;;;;2.90;0.45;;;21.60;41.10;;;;;;10289594;28;20100;-89
2022/04/12 11:53:46;;;;;;;1.58;0.30;;;21.90;43.30;;;;;;10327236;28;20050;-88
2022/04/12 11:58:48;;;;;;;0.35;0.20;;;22.00;42.50;;;;;;10312773;28;20085;-89
2022/04/12 12:03:50;;;;;;;1.25;0.25;;;22.30;41.60;;;;;;10300872;28;20108;-89
2022/04/12 12:08:52;;;;;;;2.90;0.28;;;;;;;;;;10308519;28;20058;-89
2022/04/12 12:14:01;;;;;;;0.22;0.10;;;22.60;39.50;;;;;;10302116;28;20068;-89
2022/04/12 12:19:14;;;;;;;0.40;0.30;;;22.70;41.50;;;;;;10313427;28;20061;-89
2022/04/12 12:24:16;;;;;;;0.75;0.13;;;23.10;39.90;;;;;;10329955;28;20051;-89
2022/04/12 12:29:21;;;;;;;2.83;0.20;;;23.10;40.90;;;;;;10298619;28;20054;-89
2022/04/12 12:34:28;;;;;;;0.93;0.30;;;23.40;39.50;;;;;;10321040;28;20050;-89
2022/04/12 12:39:30;;;;;;;2.40;0.30;;;23.60;39.40;;;;;;10334445;28;20435;-89
2022/04/12 12:44:43;;;;;;;0.30;0.10;;;23.70;40.80;;;;;;10304050;28;20087;-89
2022/04/12 12:50:36;;;;;;;0.52;0.10;;;23.80;39.00;;;;;;10258547;28;20045;-89
2022/04/12 12:56:15;;;;;;;0.40;0.20;;;23.90;40.10;;;;;;10234603;28;20045;-90
2022/04/12 13:01:18;;;;;;;0.98;0.20;;;23.90;39.40;;;;;;10315389;28;20054;-90
2022/04/12 13:06:21;;;;;;;0.93;0.20;;;24.00;39.10;;;;;;10322114;28;20139;-89
2022/04/12 13:11:25;;;;;;;1.65;0.50;;;24.20;38.80;;;;;;10301825;28;20062;-88
2022/04/12 13:16:27;;;;;;;0.75;0.10;;;24.20;38.60;;;;;;10321388;28;20073;-88
2022/04/12 13:21:29;;;;;;;6.45;0.25;;;24.40;38.90;;;;;;10341545;28;20042;-88
2022/04/12 13:26:31;;;;;;;1.00;0.20;;;24.40;38.60;;;;;;10308965;28;20619;-89
2022/04/12 13:31:39;;;;;;;3.95;0.22;;;24.80;38.50;;;;;;10343471;28;20527;-89
2022/04/12 13:36:43;;;;;;;1.90;0.30;;;24.60;39.20;;;;;;10281539;28;20065;-89
2022/04/12 13:41:47;;;;;;;1.38;0.40;;;24.70;38.50;;;;;;10328264;28;20070;-89
2022/04/12 13:46:51;;;;;;;3.33;0.22;;;24.70;38.80;;;;;;10333642;28;20046;-89
2022/04/12 13:51:53;;;;;;;0.75;0.20;;;24.20;39.50;;;;;;10304552;28;20119;-89
2022/04/12 13:56:55;;;;;;;0.65;0.20;;;24.40;39.30;;;;;;10307925;28;20137;-89
2022/04/12 14:01:57;;;;;;;3.53;0.30;;;24.50;39.60;;;;;;10304646;28;20066;-89
2022/04/12 14:06:59;;;;;;;0.85;0.20;;;24.70;40.50;;;;;;10295829;28;20484;-89
2022/04/12 14:12:01;;;;;;;0.22;0.17;;;24.40;40.00;;;;;;10323006;28;20133;-88
2022/04/12 14:17:04;;;;;;;2.30;0.20;;;24.60;40.50;;;;;;10292728;28;20062;-89
2022/04/12 14:22:07;;;;;;;3.85;0.40;;;24.70;40.00;;;;;;10314788;28;20560;-89
2022/04/12 14:27:13;;;;;;;0.70;0.30;;;24.80;39.90;;;;;;10314651;28;20493;-89
2022/04/12 14:32:18;;;;;;;0.82;0.17;;;24.60;40.00;;;;;;10307016;28;20055;-89
2022/04/12 14:37:20;;;;;;;1.45;0.22;;;25.00;40.30;;;;;;10316680;28;20058;-89
2022/04/12 14:42:21;;;;;;;1.30;0.30;;;25.10;41.10;;;;;;10303064;28;20058;-88
2022/04/12 14:47:23;;;;;;;5.60;0.30;;;25.10;40.60;;;;;;10317486;28;20042;-89
2022/04/12 14:52:25;;;;;;;5.25;0.30;;;25.20;41.00;;;;;;10216066;28;20051;-89
2022/04/12 14:57:28;;;;;;;2.20;0.30;;;25.10;40.80;;;;;;10313266;28;20077;-89
2022/04/12 15:02:30;;;;;;;0.50;0.20;;;24.80;41.20;;;;;;10284398;28;20140;-89
2022/04/12 15:07:32;;;;;;;0.45;0.28;;;24.80;41.10;;;;;;10295362;28;20042;-89
2022/04/12 15:12:34;;;;;;;0.60;0.25;;;24.60;42.30;;;;;;10292439;28;20084;-89
2022/04/12 15:17:37;;;;;;;0.63;0.32;;;24.50;42.40;;;;;;10294257;28;20057;-89
2022/04/12 15:22:39;;;;;;;3.33;0.50;;;24.40;42.20;;;;;;10309428;28;20057;-89
2022/04/12 15:27:44;;;;;;;0.68;0.30;;;24.30;43.60;;;;;;10290177;28;20636;-89
2022/04/12 15:32:48;;;;;;;0.82;0.20;;;24.00;43.10;;;;;;10274991;28;20129;-89
2022/04/12 15:37:51;;;;;;;1.73;0.30;;;23.90;44.80;;;;;;10316078;28;20097;-89
2022/04/12 15:42:53;;;;;;;1.50;0.30;;;23.70;44.00;;;;;;10295421;28;20050;-89
2022/04/12 15:47:56;;;;;;;3.63;0.30;;;23.60;43.80;;;;;;10294841;28;20660;-89
2022/04/12 15:53:00;;;;;;;1.52;0.40;;;23.50;43.90;;;;;;10197645;28;20054;-89
2022/04/12 15:58:11;;;;;;;2.47;0.35;;;23.20;44.40;;;;;;10222555;28;20058;-89
2022/04/12 16:03:13;;;;;;;1.55;0.30;;;23.20;45.10;;;;;;10197484;28;20162;-90
2022/04/12 16:08:15;;;;;;;0.82;0.35;;;23.10;45.00;;;;;;10280087;28;20046;-90
2022/04/12 16:13:17;;;;;;;2.60;0.40;;;23.20;45.10;;;;;;10304743;28;22811;-90
2022/04/12 16:18:19;;;;;;;2.40;0.40;;;23.40;45.20;;;;;;10264562;28;20061;-90
2022/04/12 16:23:22;;;;;;;7.38;0.32;;;23.40;45.50;;;;;;10270327;28;20054;-89
2022/04/12 16:28:24;;;;;;;2.58;0.30;;;23.20;45.40;;;;;;10189617;28;20161;-88
2022/04/12 16:33:26;;;;;;;0.68;0.40;;;23.00;44.80;;;;;;10329182;28;20077;-88
2022/04/12 16:38:29;;;;;;;2.95;0.30;;;22.80;45.40;;;;;;10333799;28;20057;-88
2022/04/12 16:43:32;;;;;;;0.95;0.30;;;22.70;45.90;;;;;;10342668;28;20050;-88
2022/04/12 16:48:33;;;;;;;0.70;0.30;;;22.50;46.00;;;;;;10320261;28;20420;-88
2022/04/12 16:53:35;;;;;;;4.97;0.30;;;22.20;46.50;;;;;;10303896;28;20042;-88
2022/04/12 16:58:37;;;;;;;2.58;0.40;;;22.00;47.20;;;;;;10316313;28;20057;-88
2022/04/12 17:03:42;;;;;;;2.65;0.40;;;21.90;47.60;;;;;;10337976;28;20046;-88
2022/04/12 17:08:50;;;;;;;0.70;0.30;;;21.60;48.10;;;;;;10324874;28;20074;-87
2022/04/12 17:13:52;;;;;;;1.73;0.30;;;21.40;48.80;;;;;;10313783;28;20057;-88
2022/04/12 17:18:54;;;;;;;3.65;0.30;;;21.30;48.80;;;;;;10315159;28;20145;-88
2022/04/12 17:23:56;;;;;;;1.48;0.45;;;21.10;49.80;;;;;;10321936;28;20047;-87
2022/04/12 17:28:59;;;;;;;0.60;0.40;;;20.90;50.30;;;;;;10334045;28;20046;-87
2022/04/12 17:34:02;;;;;;;1.65;0.28;;;20.70;51.00;;;;;;10309877;28;20046;-87
2022/04/12 17:39:05;;;;;;;2.28;0.40;;;20.50;51.20;;;;;;10330072;28;20054;-87
2022/04/12 17:44:07;;;;;;;1.25;0.40;;;20.30;51.70;;;;;;10338384;28;20042;-88
2022/04/12 17:49:09;;;;;;;1.25;0.30;;;20.10;52.20;;;;;;10339943;28;20029;-87
2022/04/12 17:54:11;;;;;;;2.80;0.47;;;20.00;52.40;;;;;;10298134;28;20045;-88
2022/04/12 17:59:13;;;;;;;0.98;0.30;;;19.70;53.00;;;;;;10339883;28;20050;-88
2022/04/12 18:04:15;;;;;;;0.90;0.20;;;19.60;53.70;;;;;;10302219;28;20117;-87
2022/04/12 18:09:17;;;;;;;2.97;0.30;;;19.30;53.90;;;;;;10317096;28;20049;-88
2022/04/12 18:14:28;;;;;;;3.97;0.30;;;19.20;54.50;;;;;;10278416;28;20045;-88
2022/04/12 18:19:31;;;;;;;3.22;0.55;;;19.00;54.30;;;;;;10337283;28;20044;-88
2022/04/12 18:24:52;;;;;;;2.60;0.55;;;18.90;55.00;;;;;;10325204;28;20046;-88
2022/04/12 18:29:55;;;;;;;1.45;0.70;;;18.70;55.40;;;;;;10296798;28;20050;-87
2022/04/12 18:34:57;;;;;;;6.50;0.60;;;18.50;57.60;;;;;;10303119;28;20416;-88
2022/04/12 18:40:00;;;;;;;1.20;0.40;;;18.30;58.60;;;;;;10329246;28;20049;-87
2022/04/12 18:45:03;;;;;;;1.33;0.30;;;18.10;59.50;;;;;;10317908;28;20050;-87
2022/04/12 18:50:09;;;;;;;3.35;0.50;;;17.90;59.40;;;;;;10309738;28;20050;-88
2022/04/12 18:55:11;;;;;;;3.33;0.77;;;17.70;60.80;;;;;;10309295;28;20049;-87
2022/04/12 19:00:13;;;;;;;4.03;0.57;;;17.50;62.30;;;;;;10333822;28;20090;-87
2022/04/12 19:05:15;;;;;;;1.70;0.60;;;17.40;63.20;;;;;;10321041;28;20054;-87
2022/04/12 19:10:17;;;;;;;4.65;0.60;;;17.20;62.90;;;;;;10329694;28;20050;-87
2022/04/12 19:15:19;;;;;;;1.80;0.40;;;17.10;63.50;;;;;;10340311;28;20077;-87
2022/04/12 19:20:22;;;;;;;3.90;0.70;;;16.90;63.60;;;;;;10334222;28;20057;-88
2022/04/12 19:25:26;;;;;;;4.03;1.55;;;16.90;64.80;;;;;;10296491;28;20133;-87
2022/04/12 19:30:28;;;;;;;4.20;2.00;;;16.80;66.20;;;;;;10285764;28;20133;-87
2022/04/12 19:35:33;;;;;;;6.45;3.42;;;16.70;66.70;;;;;;10330312;28;20046;-87
2022/04/12 19:40:35;;;;;;;2.97;1.33;;;16.60;66.80;;;;;;10324540;28;20054;-87
2022/04/12 19:45:38;;;;;;;3.92;0.63;;;16.40;67.80;;;;;;10325637;28;20093;-87
2022/04/12 19:50:44;;;;;;;3.92;0.85;;;16.30;68.10;;;;;;10327135;28;20056;-88
2022/04/12 19:55:45;;;;;;;3.10;0.70;;;16.20;68.70;;;;;;10332325;28;20038;-88
2022/04/12 20:00:49;;;;;;;3.53;0.82;;;16.10;70.90;;;;;;10338517;28;20074;-87
2022/04/12 20:05:53;;;;;;;2.30;0.70;;;16.00;72.20;;;;;;10345903;28;20053;-87
2022/04/12 20:10:55;;;;;;;1.77;0.60;;;15.90;71.60;;;;;;10353739;28;20057;-88
2022/04/12 20:15:57;;;;;;;1.02;0.50;;;15.80;72.80;;;;;;10298116;28;20087;-89
2022/04/12 20:21:04;;;;;;;1.85;0.70;;;15.70;71.20;;;;;;10340041;28;20080;-87
2022/04/12 20:26:06;;;;;;;5.07;0.98;;;15.60;72.10;;;;;;10346343;28;20086;-87
2022/04/12 20:31:12;;;;;;;3.17;0.85;;;15.50;72.60;;;;;;10322556;28;20077;-87
2022/04/12 20:36:15;;;;;;;8.73;2.10;;;15.40;75.70;;;;;;10356487;28;20080;-88
2022/04/12 20:41:17;;;;;;;9.93;1.10;;;15.30;76.10;;;;;;10355465;28;20090;-87
2022/04/12 20:46:20;;;;;;;4.15;0.98;;;15.20;77.40;;;;;;10326358;28;20060;-87
2022/04/12 20:51:22;;;;;;;1.73;0.73;;;15.10;77.80;;;;;;10310343;28;20102;-87
2022/04/12 20:56:27;;;;;;;2.90;0.85;;;14.90;78.00;;;;;;10325678;28;20128;-87
2022/04/12 21:01:29;;;;;;;5.63;0.90;;;14.90;80.30;;;;;;10355674;28;20133;-88
2022/04/12 21:06:31;;;;;;;3.05;0.68;;;14.70;83.10;;;;;;10320311;28;20073;-87
2022/04/12 21:11:35;;;;;;;2.40;0.80;;;14.60;86.20;;;;;;10310319;28;20122;-88
2022/04/12 21:16:36;;;;;;;4.05;0.70;;;14.50;84.40;;;;;;10328981;28;20490;-88
2022/04/12 21:21:39;;;;;;;2.10;0.77;;;14.40;86.00;;;;;;10308858;28;20093;-88
2022/04/12 21:26:41;;;;;;;4.18;0.80;;;14.20;88.60;;;;;;10312044;28;20073;-88
2022/04/12 21:31:44;;;;;;;2.38;0.98;;;14.10;89.90;;;;;;10290481;28;20113;-87
2022/04/12 21:36:49;;;;;;;3.75;1.30;;;13.90;89.70;;;;;;10294726;28;20340;-87
2022/04/12 21:41:51;;;;;;;3.33;1.27;;;13.90;90.80;;;;;;10347992;28;20192;-87
2022/04/12 21:46:53;;;;;;;5.93;1.83;;;13.90;92.20;;;;;;10335035;28;20081;-89
2022/04/12 21:51:56;;;;;;;8.00;2.58;;;13.80;91.90;;;;;;10322777;28;20073;-88
2022/04/12 21:57:00;;;;;;;11.07;1.90;;;13.80;92.20;;;;;;10322550;28;20398;-87
2022/04/12 22:02:04;;;;;;;9.45;1.48;;;13.60;92.30;;;;;;10345749;28;20058;-87
2022/04/12 22:07:15;;;;;;;5.35;1.20;;;13.50;92.30;;;;;;10340992;28;20062;-88
2022/04/12 22:12:17;;;;;;;2.63;0.90;;;13.40;92.50;;;;;;10335740;28;20057;-87
2022/04/12 22:17:23;;;;;;;3.65;1.08;;;13.30;91.60;;;;;;10326831;28;20100;-87
2022/04/12 22:22:25;;;;;;;4.38;1.38;;;13.20;92.00;;;;;;10356176;28;20129;-86
2022/04/12 22:27:29;;;;;;;3.28;0.90;;;13.10;93.60;;;;;;10322257;28;20046;-87
2022/04/12 22:32:32;;;;;;;3.35;0.90;;;12.90;94.10;;;;;;10307014;28;20109;-86
2022/04/12 22:37:41;;;;;;;4.25;1.02;;;12.90;94.50;;;;;;10313307;28;20140;-86
2022/04/12 22:42:43;;;;;;;4.97;0.98;;;12.70;93.90;;;;;;10335929;28;20595;-86
2022/04/12 22:47:51;;;;;;;1.80;0.80;;;12.70;93.90;;;;;;10331639;28;20049;-86
2022/04/12 22:52:55;;;;;;;2.13;0.73;;;12.60;94.00;;;;;;10327721;28;20124;-86
2022/04/12 22:57:58;;;;;;;3.00;0.90;;;12.50;93.50;;;;;;10318277;28;20059;-86
2022/04/12 23:03:00;;;;;;;4.20;1.15;;;12.50;92.60;;;;;;10306586;28;20053;-86
2022/04/12 23:08:03;;;;;;;3.70;1.20;;;12.40;94.60;;;;;;10314675;28;20054;-86
2022/04/12 23:13:05;;;;;;;4.85;0.75;;;12.30;95.50;;;;;;10329391;28;20057;-87
2022/04/12 23:18:08;;;;;;;2.33;0.80;;;12.20;94.50;;;;;;10318440;28;20584;-86
2022/04/12 23:23:11;;;;;;;1.38;0.63;;;12.20;93.80;;;;;;10327451;28;20058;-87
2022/04/12 23:28:15;;;;;;;1.08;0.60;;;12.20;95.60;;;;;;10312264;28;20069;-87
2022/04/12 23:33:17;;;;;;;5.60;0.80;;;12.10;95.60;;;;;;10322356;28;20061;-87
2022/04/12 23:38:19;;;;;;;4.45;1.05;;;12.00;96.90;;;;;;10320243;28;25522;-87
2022/04/12 23:43:25;;;;;;;5.63;0.93;;;12.00;97.40;;;;;;10328643;28;20068;-86
2022/04/12 23:48:26;;;;;;;1.60;0.68;;;11.80;97.30;;;;;;10345348;28;20042;-87
2022/04/12 23:53:28;;;;;;;3.20;0.50;;;11.80;96.80;;;;;;10312324;28;20053;-87
2022/04/12 23:58:30;;;;;;;4.80;0.80;;;11.80;97.10;;;;;;10327025;28;20050;-87
